Time;durP1;ratioP1;P1;durP2;ratioP2;P2;SDS_P1;SDS_P2;PMS_P1;PMS_P2;Temp;Humidity;BMP_temperature;BMP_pressure;BME280_temperature;BME280_humidity;BME280_pressure;Samples;Min_cycle;Max_cycle;Signal;HPM_P1;HPM_P2
2022/03/06 00:01:10;;;;;;;;;;;-0.10;99.90;;;;;;5091054;28;20313;-42
2022/03/06 00:03:35;;;;;;;;;;;-0.10;99.90;;;;;;5092619;28;19912;-42
2022/03/06 00:06:01;;;;;;;;;;;-0.10;99.90;;;;;;5092462;28;20354;-41
2022/03/06 00:08:28;;;;;;;;;;;-0.10;99.90;;;;;;5092460;28;19927;-41
2022/03/06 00:10:54;;;;;;;;;;;-0.10;99.90;;;;;;5092248;28;19947;-41
2022/03/06 00:13:19;;;;;;;;;;;-0.10;99.90;;;;;;5092613;28;19943;-42
2022/03/06 00:15:45;;;;;;;;;;;-0.20;99.90;;;;;;5092765;28;19908;-42
2022/03/06 00:18:10;;;;;;;;;;;-0.20;99.90;;;;;;5100046;28;19912;-42
2022/03/06 00:20:36;;;;;;;;;;;-0.30;99.90;;;;;;5093302;28;19919;-42
2022/03/06 00:23:02;;;;;;;;;;;-0.40;99.90;;;;;;5093388;28;19938;-41
2022/03/06 00:25:28;;;;;;;;;;;-0.40;99.90;;;;;;5093579;28;19935;-42
2022/03/06 00:27:53;;;;;;;;;;;-0.50;99.90;;;;;;5093710;28;19908;-42
2022/03/06 00:30:19;;;;;;;;;;;-0.50;99.90;;;;;;5088311;28;20317;-43
2022/03/06 00:32:44;;;;;;;;;;;-0.50;99.90;;;;;;5091360;28;19912;-42
2022/03/06 00:35:10;;;;;;;;;;;-0.40;99.90;;;;;;5091547;28;20354;-42
2022/03/06 00:37:35;;;;;;;;;;;-0.40;99.90;;;;;;5090184;28;19958;-42
2022/03/06 00:40:03;;;;;;;;;;;-0.50;99.90;;;;;;5090025;28;19916;-41
2022/03/06 00:42:28;;;;;;;;;;;-0.50;99.90;;;;;;5091857;28;19998;-41
2022/03/06 00:44:54;;;;;;;;;;;-0.50;99.90;;;;;;5091257;28;20011;-42
2022/03/06 00:47:19;;;;;;;;;;;-0.50;99.90;;;;;;5092751;28;20126;-43
2022/03/06 00:49:45;;;;;;;;;;;-0.50;99.90;;;;;;5093556;28;19908;-42
2022/03/06 00:52:12;;;;;;;;;;;-0.60;99.90;;;;;;5093245;28;19908;-41
2022/03/06 00:54:37;;;;;;;;;;;-0.50;99.90;;;;;;5093415;28;20312;-41
2022/03/06 00:57:03;;;;;;;;;;;-0.50;99.90;;;;;;5093502;28;19909;-41
2022/03/06 00:59:33;;;;;;;;;;;-0.50;99.90;;;;;;5092917;28;19908;-41
2022/03/06 01:01:59;;;;;;;;;;;-0.50;99.90;;;;;;5093403;28;19916;-41
2022/03/06 01:04:25;;;;;;;;;;;-0.50;99.90;;;;;;5093476;28;20053;-41
2022/03/06 01:06:50;;;;;;;;;;;-0.50;99.90;;;;;;5092944;28;19980;-42
2022/03/06 01:09:16;;;;;;;;;;;-0.60;99.90;;;;;;5095818;28;20370;-41
2022/03/06 01:11:41;;;;;;;;;;;-0.50;99.90;;;;;;5096909;28;20335;-42
2022/03/06 01:14:07;;;;;;;;;;;-0.60;99.90;;;;;;5096923;28;19955;-42
2022/03/06 01:16:32;;;;;;;;;;;-0.60;99.90;;;;;;5096660;28;19916;-42
2022/03/06 01:18:58;;;;;;;;;;;-0.50;99.90;;;;;;5096573;28;19912;-41
2022/03/06 01:21:24;;;;;;;;;;;-0.60;99.90;;;;;;5096426;28;19912;-42
2022/03/06 01:23:49;;;;;;;;;;;-0.60;99.90;;;;;;5096469;28;20298;-43
2022/03/06 01:26:16;;;;;;;;;;;-0.60;99.90;;;;;;5096821;28;19915;-42
2022/03/06 01:28:42;;;;;;;;;;;-0.60;99.90;;;;;;5096513;28;19949;-42
2022/03/06 01:31:07;;;;;;;;;;;-0.60;99.90;;;;;;5096346;28;20011;-47
2022/03/06 01:33:33;;;;;;;;;;;-0.60;99.90;;;;;;5096849;28;19960;-41
2022/03/06 01:35:58;;;;;;;;;;;-0.60;99.90;;;;;;5096055;28;19908;-41
2022/03/06 01:38:24;;;;;;;;;;;-0.50;99.90;;;;;;5096130;28;20312;-42
2022/03/06 01:40:49;;;;;;;;;;;-0.60;99.90;;;;;;5096243;28;20455;-43
2022/03/06 01:43:15;;;;;;;;;;;-0.60;99.90;;;;;;5095958;28;19912;-41
2022/03/06 01:45:40;;;;;;;;;;;-0.60;99.90;;;;;;5096161;28;19915;-41
2022/03/06 01:48:08;;;;;;;;;;;-0.70;99.90;;;;;;5096134;28;20369;-41
2022/03/06 01:50:34;;;;;;;;;;;-0.70;99.90;;;;;;5095894;28;19916;-42
2022/03/06 01:53:00;;;;;;;;;;;-0.70;99.90;;;;;;5096084;28;19908;-42
2022/03/06 01:55:26;;;;;;;;;;;-0.70;99.90;;;;;;5095742;28;19908;-41
2022/03/06 01:57:53;;;;;;;;;;;-0.70;99.90;;;;;;5096032;28;19908;-41
2022/03/06 02:00:20;;;;;;;;;;;-0.80;99.90;;;;;;5095613;28;19916;-41
2022/03/06 02:02:46;;;;;;;;;;;-0.70;99.90;;;;;;5095963;28;19912;-41
2022/03/06 02:05:12;;;;;;;;;;;-0.80;99.90;;;;;;5095525;28;19977;-42
2022/03/06 02:07:37;;;;;;;;;;;-0.80;99.90;;;;;;5095527;28;19908;-42
2022/03/06 02:10:04;;;;;;;;;;;-0.80;99.90;;;;;;5095254;28;19944;-41
2022/03/06 02:12:30;;;;;;;;;;;-0.80;99.90;;;;;;5095280;28;20307;-41
2022/03/06 02:14:57;;;;;;;;;;;-0.80;99.90;;;;;;5094209;28;19966;-42
2022/03/06 02:17:23;;;;;;;;;;;-0.80;99.90;;;;;;5095271;28;19947;-41
2022/03/06 02:19:52;;;;;;;;;;;-0.80;99.90;;;;;;5094757;28;19919;-42
2022/03/06 02:22:22;;;;;;;;;;;-0.70;99.90;;;;;;5095620;28;20413;-41
2022/03/06 02:24:48;;;;;;;;;;;-0.80;99.90;;;;;;5095441;28;19966;-41
2022/03/06 02:27:13;;;;;;;;;;;-0.70;99.90;;;;;;5095106;28;19908;-41
2022/03/06 02:29:40;;;;;;;;;;;-0.80;99.90;;;;;;5094940;28;19920;-41
2022/03/06 02:32:06;;;;;;;;;;;-0.70;99.90;;;;;;5094983;28;20354;-42
2022/03/06 02:34:32;;;;;;;;;;;-0.70;99.90;;;;;;5094936;28;19912;-41
2022/03/06 02:37:00;;;;;;;;;;;-0.80;99.90;;;;;;5094991;28;19999;-42
2022/03/06 02:39:26;;;;;;;;;;;-0.80;99.90;;;;;;5095502;28;19950;-42
2022/03/06 02:41:51;;;;;;;;;;;-0.80;99.90;;;;;;5095141;28;19974;-42
2022/03/06 02:44:17;;;;;;;;;;;-0.80;99.90;;;;;;5094988;28;20007;-41
2022/03/06 02:46:46;;;;;;;;;;;-0.80;99.90;;;;;;5095106;28;19916;-42
2022/03/06 02:49:13;;;;;;;;;;;-0.80;99.90;;;;;;5095157;28;19994;-42
2022/03/06 02:51:40;;;;;;;;;;;-0.80;99.90;;;;;;5095022;28;19912;-42
2022/03/06 02:54:05;;;;;;;;;;;-0.80;99.90;;;;;;5095275;28;19987;-42
2022/03/06 02:56:31;;;;;;;;;;;-0.80;99.90;;;;;;5094974;28;20326;-43
2022/03/06 02:58:56;;;;;;;;;;;-0.80;99.90;;;;;;5094560;28;20251;-42
2022/03/06 03:01:22;;;;;;;;;;;-0.80;99.90;;;;;;5094671;28;19912;-42
2022/03/06 03:03:48;;;;;;;;;;;-0.70;99.90;;;;;;5094756;28;19923;-41
2022/03/06 03:06:13;;;;;;;;;;;-0.80;99.90;;;;;;5094488;28;19916;-42
2022/03/06 03:08:39;;;;;;;;;;;-0.90;99.90;;;;;;5094460;28;20333;-41
2022/03/06 03:11:04;;;;;;;;;;;-0.90;99.90;;;;;;5094851;28;20007;-41
2022/03/06 03:13:30;;;;;;;;;;;-1.00;99.90;;;;;;5094621;28;20052;-41
2022/03/06 03:15:55;;;;;;;;;;;-0.90;99.90;;;;;;5094198;28;20320;-42
2022/03/06 03:18:21;;;;;;;;;;;-0.90;99.90;;;;;;5093222;28;19908;-41
2022/03/06 03:20:49;;;;;;;;;;;-0.90;99.90;;;;;;5094394;28;19947;-41
2022/03/06 03:23:14;;;;;;;;;;;-0.80;99.90;;;;;;5094482;28;20002;-41
2022/03/06 03:25:40;;;;;;;;;;;-0.70;99.90;;;;;;5093219;28;19958;-41
2022/03/06 03:28:05;;;;;;;;;;;-0.80;99.90;;;;;;5093923;28;19908;-41
2022/03/06 03:30:31;;;;;;;;;;;-0.70;99.90;;;;;;5093339;28;19908;-41
2022/03/06 03:32:56;;;;;;;;;;;-0.70;99.90;;;;;;5094261;28;20270;-41
2022/03/06 03:35:22;;;;;;;;;;;-0.70;99.90;;;;;;5092942;28;20386;-43
2022/03/06 03:37:47;;;;;;;;;;;-0.70;99.90;;;;;;5094250;28;19916;-41
2022/03/06 03:40:13;;;;;;;;;;;-0.70;99.90;;;;;;5094097;28;19912;-42
2022/03/06 03:42:38;;;;;;;;;;;-0.70;99.90;;;;;;5092602;28;19919;-41
2022/03/06 03:45:05;;;;;;;;;;;-0.80;99.90;;;;;;5092760;28;19915;-41
2022/03/06 03:47:30;;;;;;;;;;;-0.80;99.90;;;;;;5094020;28;19908;-41
2022/03/06 03:49:56;;;;;;;;;;;-0.80;99.90;;;;;;5094056;28;20349;-41
2022/03/06 03:52:21;;;;;;;;;;;-0.80;99.90;;;;;;5126912;27;20286;-42
2022/03/06 03:54:47;;;;;;;;;;;-0.90;99.90;;;;;;5094061;28;19912;-42
2022/03/06 03:57:13;;;;;;;;;;;-0.90;99.90;;;;;;5094068;28;19908;-42
2022/03/06 03:59:40;;;;;;;;;;;-0.80;99.90;;;;;;5093453;28;19929;-42
2022/03/06 04:02:06;;;;;;;;;;;-0.80;99.90;;;;;;5094189;28;20347;-41
2022/03/06 04:04:32;;;;;;;;;;;-0.90;99.90;;;;;;5093923;28;19908;-41
2022/03/06 04:06:58;;;;;;;;;;;-0.90;99.90;;;;;;5093892;28;19919;-41
2022/03/06 04:09:24;;;;;;;;;;;-1.00;99.90;;;;;;5092933;28;19990;-40
2022/03/06 04:11:49;;;;;;;;;;;-0.90;99.90;;;;;;5093973;28;19958;-41
2022/03/06 04:14:15;;;;;;;;;;;-0.90;99.90;;;;;;5093851;28;20377;-41
2022/03/06 04:16:41;;;;;;;;;;;-0.90;99.90;;;;;;5093541;28;19961;-40
2022/03/06 04:19:07;;;;;;;;;;;-0.80;99.90;;;;;;5093463;28;20017;-42
2022/03/06 04:21:32;;;;;;;;;;;-0.80;99.90;;;;;;5093720;28;19920;-42
2022/03/06 04:23:58;;;;;;;;;;;-0.80;99.90;;;;;;5093370;28;20324;-41
2022/03/06 04:26:24;;;;;;;;;;;-0.80;99.90;;;;;;5093653;28;20277;-41
2022/03/06 04:28:49;;;;;;;;;;;-0.80;99.90;;;;;;5093736;28;19924;-41
2022/03/06 04:31:15;;;;;;;;;;;-0.80;99.90;;;;;;5093755;28;19915;-41
2022/03/06 04:33:40;;;;;;;;;;;-0.90;99.90;;;;;;5093609;28;19919;-41
2022/03/06 04:36:06;;;;;;;;;;;-1.00;99.90;;;;;;5093442;28;20354;-42
2022/03/06 04:38:32;;;;;;;;;;;-1.00;99.90;;;;;;5093974;28;19916;-41
2022/03/06 04:40:57;;;;;;;;;;;-1.00;99.90;;;;;;5093564;28;19916;-41
2022/03/06 04:43:24;;;;;;;;;;;-1.00;99.90;;;;;;5096324;28;19912;-43
2022/03/06 04:45:50;;;;;;;;;;;-1.00;99.90;;;;;;5097307;28;19912;-41
2022/03/06 04:48:15;;;;;;;;;;;-1.10;99.90;;;;;;5097309;28;19908;-41
2022/03/06 04:50:41;;;;;;;;;;;-1.10;99.90;;;;;;5095549;28;20411;-42
2022/03/06 04:53:06;;;;;;;;;;;-1.00;99.90;;;;;;5097084;28;20376;-42
2022/03/06 04:55:32;;;;;;;;;;;-0.90;99.90;;;;;;5096988;28;19908;-42
2022/03/06 04:57:57;;;;;;;;;;;-1.00;99.90;;;;;;5096819;28;19995;-42
2022/03/06 05:00:23;;;;;;;;;;;-1.00;99.90;;;;;;5096834;28;20012;-41
2022/03/06 05:02:48;;;;;;;;;;;-1.00;99.90;;;;;;5097024;28;19953;-41
2022/03/06 05:05:14;;;;;;;;;;;-1.00;99.90;;;;;;5096695;28;19915;-41
2022/03/06 05:07:39;;;;;;;;;;;-0.90;99.90;;;;;;5096622;28;19908;-41
2022/03/06 05:10:11;;;;;;;;;;;-0.90;99.90;;;;;;5096992;28;19908;-41
2022/03/06 05:12:37;;;;;;;;;;;-1.00;99.90;;;;;;5096938;28;19908;-42
2022/03/06 05:15:03;;;;;;;;;;;-1.00;99.90;;;;;;5096898;28;19915;-42
2022/03/06 05:17:29;;;;;;;;;;;-1.10;99.90;;;;;;5096881;28;20006;-42
2022/03/06 05:19:55;;;;;;;;;;;-1.00;99.90;;;;;;5096483;28;19908;-42
2022/03/06 05:22:20;;;;;;;;;;;-1.00;99.90;;;;;;5096782;28;19912;-42
2022/03/06 05:24:46;;;;;;;;;;;-1.00;99.90;;;;;;5096471;28;20398;-41
2022/03/06 05:27:11;;;;;;;;;;;-1.00;99.90;;;;;;5096338;28;19981;-41
2022/03/06 05:29:37;;;;;;;;;;;-1.00;99.90;;;;;;5096138;28;20282;-41
2022/03/06 05:32:02;;;;;;;;;;;-1.00;99.90;;;;;;5095184;28;19908;-41
2022/03/06 05:34:28;;;;;;;;;;;-1.00;99.90;;;;;;5096402;28;19912;-40
2022/03/06 05:36:54;;;;;;;;;;;-1.10;99.90;;;;;;5096500;28;19908;-41
2022/03/06 05:39:20;;;;;;;;;;;-1.10;99.90;;;;;;5096644;28;19961;-41
2022/03/06 05:41:45;;;;;;;;;;;-1.00;99.90;;;;;;5096396;28;20251;-41
2022/03/06 05:44:11;;;;;;;;;;;-1.10;99.90;;;;;;5096131;28;20070;-42
2022/03/06 05:46:36;;;;;;;;;;;-1.00;99.90;;;;;;5095011;28;20061;-41
2022/03/06 05:49:02;;;;;;;;;;;-1.10;99.90;;;;;;5095802;28;19908;-41
2022/03/06 05:51:27;;;;;;;;;;;-1.10;99.90;;;;;;5095749;28;19935;-41
2022/03/06 05:53:53;;;;;;;;;;;-1.10;99.90;;;;;;5095241;28;19908;-41
2022/03/06 05:56:18;;;;;;;;;;;-1.10;99.90;;;;;;5094637;28;20270;-41
2022/03/06 05:58:44;;;;;;;;;;;-1.10;99.90;;;;;;5095721;28;20205;-41
2022/03/06 06:01:09;;;;;;;;;;;-1.10;99.90;;;;;;5095598;28;19912;-41
2022/03/06 06:03:35;;;;;;;;;;;-1.00;99.90;;;;;;5095945;28;20305;-41
2022/03/06 06:06:00;;;;;;;;;;;-1.20;99.90;;;;;;5095415;28;19912;-41
2022/03/06 06:08:26;;;;;;;;;;;-1.10;99.90;;;;;;5095396;28;20370;-42
2022/03/06 06:10:51;;;;;;;;;;;-1.00;99.90;;;;;;5095826;28;19919;-42
2022/03/06 06:13:19;;;;;;;;;;;-1.00;99.90;;;;;;5095271;28;20377;-41
2022/03/06 06:15:44;;;;;;;;;;;-0.90;99.90;;;;;;5095576;28;19931;-41
2022/03/06 06:18:10;;;;;;;;;;;-0.90;99.90;;;;;;5095647;28;20343;-41
2022/03/06 06:20:36;;;;;;;;;;;-0.90;99.90;;;;;;5095584;28;19918;-41
2022/03/06 06:23:03;;;;;;;;;;;-0.80;99.90;;;;;;5095503;28;19920;-42
2022/03/06 06:25:28;;;;;;;;;;;-0.80;99.90;;;;;;5095226;28;19912;-42
2022/03/06 06:27:54;;;;;;;;;;;-0.80;99.90;;;;;;5095471;28;20372;-43
2022/03/06 06:30:20;;;;;;;;;;;-0.70;99.90;;;;;;5095157;28;19908;-42
2022/03/06 06:32:45;;;;;;;;;;;-0.60;99.90;;;;;;5095008;28;19908;-42
2022/03/06 06:35:11;;;;;;;;;;;-0.50;99.90;;;;;;5095214;28;19908;-42
2022/03/06 06:37:37;;;;;;;;;;;-0.60;99.90;;;;;;5095021;28;19909;-42
2022/03/06 06:40:03;;;;;;;;;;;-0.50;99.90;;;;;;5094921;28;19912;-42
2022/03/06 06:42:28;;;;;;;;;;;-0.50;99.90;;;;;;5094792;28;19916;-42
2022/03/06 06:44:54;;;;;;;;;;;-0.40;99.90;;;;;;5094908;28;19962;-42
2022/03/06 06:47:19;;;;;;;;;;;-0.40;99.90;;;;;;5094671;28;19908;-41
2022/03/06 06:49:45;;;;;;;;;;;-0.50;99.90;;;;;;5095374;28;19908;-41
2022/03/06 06:52:10;;;;;;;;;;;-0.30;99.90;;;;;;5094634;28;19908;-41
2022/03/06 06:54:36;;;;;;;;;;;-0.30;99.90;;;;;;5094029;28;19912;-42
2022/03/06 06:57:01;;;;;;;;;;;-0.40;99.90;;;;;;5109079;28;20254;-41
2022/03/06 06:59:27;;;;;;;;;;;-0.40;99.90;;;;;;5097106;28;20254;-41
2022/03/06 07:01:53;;;;;;;;;;;-0.40;99.90;;;;;;5094569;28;20289;-41
2022/03/06 07:04:18;;;;;;;;;;;-0.20;99.90;;;;;;5093381;28;19916;-42
2022/03/06 07:06:44;;;;;;;;;;;-0.20;99.90;;;;;;5094798;28;20106;-41
2022/03/06 07:09:09;;;;;;;;;;;-0.10;99.90;;;;;;5094610;28;20010;-42
2022/03/06 07:11:35;;;;;;;;;;;-0.20;99.90;;;;;;5096691;28;20401;-41
2022/03/06 07:14:01;;;;;;;;;;;-0.30;99.90;;;;;;5110226;28;19912;-42
2022/03/06 07:16:26;;;;;;;;;;;-0.30;99.90;;;;;;5111556;28;19908;-47
2022/03/06 07:18:53;;;;;;;;;;;-0.20;99.90;;;;;;5093281;28;19909;-41
2022/03/06 07:21:19;;;;;;;;;;;-0.20;99.90;;;;;;5094077;28;20286;-42
2022/03/06 07:23:45;;;;;;;;;;;-0.20;99.90;;;;;;5094180;28;19912;-42
2022/03/06 07:26:10;;;;;;;;;;;-0.10;99.90;;;;;;5093107;28;19912;-41
2022/03/06 07:28:36;;;;;;;;;;;-0.10;99.90;;;;;;5096206;28;19981;-42
2022/03/06 07:31:02;;;;;;;;;;;-0.20;99.90;;;;;;5104249;28;19999;-42
2022/03/06 07:33:27;;;;;;;;;;;-0.20;99.90;;;;;;5106961;28;19908;-42
2022/03/06 07:35:53;;;;;;;;;;;-0.10;99.90;;;;;;5114048;28;20336;-42
2022/03/06 07:38:19;;;;;;;;;;;0.20;99.90;;;;;;5094810;28;19953;-44
2022/03/06 07:40:44;;;;;;;;;;;0.40;99.90;;;;;;5094083;28;19912;-42
2022/03/06 07:43:10;;;;;;;;;;;0.40;99.90;;;;;;5103934;28;19955;-41
2022/03/06 07:45:35;;;;;;;;;;;0.50;99.90;;;;;;5096518;28;20015;-41
2022/03/06 07:48:03;;;;;;;;;;;0.60;99.90;;;;;;5097631;28;19908;-41
2022/03/06 07:50:29;;;;;;;;;;;0.70;99.90;;;;;;5113893;28;19908;-42
2022/03/06 07:52:56;;;;;;;;;;;0.80;99.90;;;;;;5114048;28;20376;-42
2022/03/06 07:55:22;;;;;;;;;;;0.70;99.90;;;;;;5114223;28;19935;-42
2022/03/06 07:57:47;;;;;;;;;;;0.80;99.90;;;;;;5105195;28;19954;-41
2022/03/06 08:00:13;;;;;;;;;;;1.10;99.90;;;;;;5098170;28;19911;-43
2022/03/06 08:02:38;;;;;;;;;;;1.00;99.90;;;;;;5098081;28;20007;-43
2022/03/06 08:05:04;;;;;;;;;;;0.90;99.90;;;;;;5093631;28;19912;-41
2022/03/06 08:07:30;;;;;;;;;;;1.10;99.90;;;;;;5093588;28;19908;-42
2022/03/06 08:09:56;;;;;;;;;;;1.10;99.90;;;;;;5093550;28;19908;-42
2022/03/06 08:12:23;;;;;;;;;;;1.30;99.90;;;;;;5094032;28;19908;-42
2022/03/06 08:14:49;;;;;;;;;;;1.40;99.90;;;;;;5093485;28;19944;-42
2022/03/06 08:17:16;;;;;;;;;;;1.40;99.90;;;;;;5094874;28;19923;-41
2022/03/06 08:19:42;;;;;;;;;;;1.50;99.90;;;;;;5100994;28;19935;-41
2022/03/06 08:22:08;;;;;;;;;;;1.50;99.90;;;;;;5117800;28;19924;-42
2022/03/06 08:24:33;;;;;;;;;;;1.80;99.90;;;;;;5116207;28;19920;-42
2022/03/06 08:26:59;;;;;;;;;;;1.90;99.90;;;;;;5106314;28;19957;-42
2022/03/06 08:29:24;;;;;;;;;;;1.90;99.90;;;;;;5117929;28;19926;-41
2022/03/06 08:31:50;;;;;;;;;;;1.80;99.90;;;;;;5101508;28;19963;-41
2022/03/06 08:34:16;;;;;;;;;;;1.90;99.90;;;;;;5077056;28;20270;-43
2022/03/06 08:36:41;;;;;;;;;;;2.10;99.90;;;;;;5091135;28;20418;-41
2022/03/06 08:39:07;;;;;;;;;;;2.10;99.90;;;;;;5079657;28;20330;-41
2022/03/06 08:41:33;;;;;;;;;;;2.00;99.90;;;;;;5084474;28;19951;-42
2022/03/06 08:43:58;;;;;;;;;;;1.90;99.90;;;;;;5117833;28;20009;-45
2022/03/06 08:46:24;;;;;;;;;;;1.80;99.90;;;;;;5091603;28;19908;-42
2022/03/06 08:48:50;;;;;;;;;;;1.90;99.90;;;;;;5081035;28;19912;-42
2022/03/06 08:51:15;;;;;;;;;;;1.90;99.90;;;;;;5115912;28;19904;-42
2022/03/06 08:53:41;;;;;;;;;;;2.00;99.90;;;;;;5116221;28;19904;-43
2022/03/06 08:56:06;;;;;;;;;;;2.20;99.90;;;;;;5117230;28;20308;-42
2022/03/06 08:58:32;;;;;;;;;;;2.20;99.90;;;;;;5116811;28;19975;-42
2022/03/06 09:00:58;;;;;;;;;;;2.50;99.90;;;;;;5103231;28;20053;-42
2022/03/06 09:03:23;;;;;;;;;;;2.50;99.90;;;;;;5097427;28;19916;-41
2022/03/06 09:05:49;;;;;;;;;;;2.30;99.90;;;;;;5111808;28;19942;-41
2022/03/06 09:08:14;;;;;;;;;;;2.50;99.90;;;;;;5116835;28;20002;-42
2022/03/06 09:10:40;;;;;;;;;;;2.70;99.90;;;;;;5109646;28;20306;-43
2022/03/06 09:13:07;;;;;;;;;;;2.90;99.90;;;;;;5098968;28;19924;-41
2022/03/06 09:15:33;;;;;;;;;;;3.10;99.90;;;;;;5099003;28;20003;-42
2022/03/06 09:17:59;;;;;;;;;;;2.70;99.90;;;;;;5096192;28;19908;-42
2022/03/06 09:20:25;;;;;;;;;;;2.60;99.90;;;;;;5096064;28;19915;-42
2022/03/06 09:22:51;;;;;;;;;;;3.00;99.90;;;;;;5096162;28;19908;-44
2022/03/06 09:25:16;;;;;;;;;;;3.00;99.90;;;;;;5095161;28;19926;-42
2022/03/06 09:27:42;;;;;;;;;;;3.10;99.90;;;;;;5095863;28;20406;-42
2022/03/06 09:30:08;;;;;;;;;;;3.30;99.90;;;;;;5095275;28;19965;-43
2022/03/06 09:32:34;;;;;;;;;;;3.20;99.90;;;;;;5094859;28;19966;-41
2022/03/06 09:34:59;;;;;;;;;;;3.20;98.30;;;;;;5096064;28;19935;-41
2022/03/06 09:37:25;;;;;;;;;;;3.40;99.60;;;;;;5096289;28;19908;-42
2022/03/06 09:39:51;;;;;;;;;;;3.50;97.70;;;;;;5095333;28;19908;-41
2022/03/06 09:42:17;;;;;;;;;;;3.60;97.20;;;;;;5095395;28;19976;-44
2022/03/06 09:44:44;;;;;;;;;;;3.80;96.70;;;;;;5095396;28;19912;-42
2022/03/06 09:47:10;;;;;;;;;;;3.80;96.60;;;;;;5095711;28;19909;-41
2022/03/06 09:49:36;;;;;;;;;;;4.00;96.10;;;;;;5108352;28;19911;-43
2022/03/06 09:52:02;;;;;;;;;;;4.00;95.60;;;;;;5106904;28;20255;-43
2022/03/06 09:54:29;;;;;;;;;;;4.00;96.50;;;;;;5104215;28;20511;-42
2022/03/06 09:56:54;;;;;;;;;;;4.00;95.90;;;;;;5114202;28;19914;-42
2022/03/06 09:59:20;;;;;;;;;;;4.10;96.50;;;;;;5112369;28;19912;-43
2022/03/06 10:01:46;;;;;;;;;;;4.50;95.50;;;;;;5115818;28;19918;-43
2022/03/06 10:04:25;;;;;;;;;;;4.70;94.50;;;;;;5097990;28;20368;-42
2022/03/06 10:07:01;;;;;;;;;;;4.30;94.00;;;;;;5095501;28;20323;-42
2022/03/06 10:09:28;;;;;;;;;;;4.10;94.00;;;;;;5094901;28;19912;-42
2022/03/06 10:11:54;;;;;;;;;;;4.00;94.10;;;;;;5095981;28;19920;-43
2022/03/06 10:14:33;;;;;;;;;;;3.60;94.30;;;;;;5095717;28;19947;-42
2022/03/06 10:17:31;;;;;;;;;;;3.90;94.60;;;;;;5075391;28;19912;-43
2022/03/06 10:19:57;;;;;;;;;;;4.00;94.30;;;;;;5063751;28;20262;-42
2022/03/06 10:22:27;;;;;;;;;;;4.40;94.00;;;;;;5094699;28;19916;-42
2022/03/06 10:24:54;;;;;;;;;;;4.30;94.10;;;;;;5100798;28;19961;-42
2022/03/06 10:27:38;;;;;;;;;;;4.00;94.10;;;;;;5094981;28;19912;-42
2022/03/06 10:30:21;;;;;;;;;;;4.10;93.80;;;;;;5094670;28;20355;-42
2022/03/06 10:32:46;;;;;;;;;;;4.10;93.50;;;;;;5095972;28;19919;-41
2022/03/06 10:35:12;;;;;;;;;;;4.00;93.60;;;;;;5095033;28;19916;-42
2022/03/06 10:37:37;;;;;;;;;;;3.90;93.70;;;;;;5094231;28;20603;-43
2022/03/06 10:40:03;;;;;;;;;;;3.30;94.00;;;;;;5100627;28;20325;-42
2022/03/06 10:42:28;;;;;;;;;;;3.10;94.70;;;;;;5115286;28;20417;-42
2022/03/06 10:44:54;;;;;;;;;;;3.40;93.80;;;;;;5093671;28;20378;-42
2022/03/06 10:47:20;;;;;;;;;;;3.40;93.80;;;;;;5086682;28;19928;-41
2022/03/06 10:49:58;;;;;;;;;;;3.70;93.30;;;;;;5074696;28;19958;-42
2022/03/06 10:52:24;;;;;;;;;;;3.50;93.40;;;;;;5086685;28;19919;-41
2022/03/06 10:54:49;;;;;;;;;;;3.50;93.30;;;;;;5094403;28;19977;-40
2022/03/06 10:57:15;;;;;;;;;;;3.80;93.30;;;;;;5084784;28;19919;-41
2022/03/06 10:59:42;;;;;;;;;;;3.80;93.40;;;;;;5095668;28;19967;-42
2022/03/06 11:02:09;;;;;;;;;;;4.20;93.20;;;;;;5082134;28;19927;-42
2022/03/06 11:04:36;;;;;;;;;;;4.50;92.90;;;;;;5090368;28;19923;-42
2022/03/06 11:07:01;;;;;;;;;;;4.70;93.50;;;;;;5075782;28;19912;-43
2022/03/06 11:09:27;;;;;;;;;;;4.90;93.80;;;;;;5077075;28;19919;-40
2022/03/06 11:11:52;;;;;;;;;;;5.10;92.80;;;;;;5079268;28;19912;-41
2022/03/06 11:14:19;;;;;;;;;;;5.50;94.20;;;;;;5092029;28;19916;-41
2022/03/06 11:16:44;;;;;;;;;;;5.70;92.70;;;;;;5084770;28;19919;-41
2022/03/06 11:19:10;;;;;;;;;;;5.80;91.30;;;;;;5079631;28;19912;-41
2022/03/06 11:21:38;;;;;;;;;;;5.50;90.80;;;;;;5081776;28;19923;-41
2022/03/06 11:24:21;;;;;;;;;;;5.00;91.60;;;;;;5090574;28;19916;-41
2022/03/06 11:27:05;;;;;;;;;;;5.10;91.20;;;;;;5073770;28;19912;-42
2022/03/06 11:29:42;;;;;;;;;;;5.40;91.30;;;;;;5083820;28;20244;-42
2022/03/06 11:32:08;;;;;;;;;;;5.30;91.00;;;;;;5093943;28;19908;-41
2022/03/06 11:34:37;;;;;;;;;;;5.40;90.90;;;;;;5093599;28;20412;-42
2022/03/06 11:37:10;;;;;;;;;;;5.40;92.80;;;;;;5093540;28;20423;-41
2022/03/06 11:39:35;;;;;;;;;;;5.60;91.00;;;;;;5093912;28;20013;-41
2022/03/06 11:42:02;;;;;;;;;;;6.00;91.40;;;;;;5093505;28;19991;-41
2022/03/06 11:44:33;;;;;;;;;;;5.50;90.50;;;;;;5093379;28;20358;-41
2022/03/06 11:46:59;;;;;;;;;;;5.80;90.70;;;;;;5097028;28;19919;-42
2022/03/06 11:49:34;;;;;;;;;;;6.30;91.20;;;;;;5112584;28;20312;-41
2022/03/06 11:52:00;;;;;;;;;;;6.80;91.10;;;;;;5113244;28;19908;-42
2022/03/06 11:54:39;;;;;;;;;;;7.10;90.30;;;;;;5113812;28;19907;-41
2022/03/06 11:57:05;;;;;;;;;;;5.20;90.10;;;;;;5114472;28;20260;-42
2022/03/06 11:59:32;;;;;;;;;;;4.80;91.80;;;;;;5113634;28;20007;-42
2022/03/06 12:01:59;;;;;;;;;;;5.10;93.10;;;;;;5114038;28;19912;-41
2022/03/06 12:04:26;;;;;;;;;;;5.40;91.20;;;;;;5113811;28;19934;-42
2022/03/06 12:07:02;;;;;;;;;;;5.10;91.20;;;;;;5113761;28;19908;-42
2022/03/06 12:09:32;;;;;;;;;;;4.90;91.80;;;;;;5112176;28;19934;-42
2022/03/06 12:12:00;;;;;;;;;;;5.50;90.70;;;;;;5112601;28;19908;-42
2022/03/06 12:14:34;;;;;;;;;;;5.10;91.60;;;;;;5088699;28;19920;-42
2022/03/06 12:17:00;;;;;;;;;;;5.80;91.70;;;;;;5089484;28;20289;-41
2022/03/06 12:19:31;;;;;;;;;;;6.10;92.30;;;;;;5091597;28;19912;-41
2022/03/06 12:22:13;;;;;;;;;;;6.50;90.90;;;;;;5100797;28;20808;-41
2022/03/06 12:24:39;;;;;;;;;;;5.20;90.10;;;;;;5089702;28;19920;-42
2022/03/06 12:27:15;;;;;;;;;;;4.80;90.50;;;;;;5091272;28;19946;-42
2022/03/06 12:29:46;;;;;;;;;;;4.80;90.40;;;;;;5086209;28;19993;-41
2022/03/06 12:32:24;;;;;;;;;;;5.40;92.00;;;;;;5093188;28;19951;-42
2022/03/06 12:34:58;;;;;;;;;;;5.60;91.80;;;;;;5093107;28;19908;-42
2022/03/06 12:37:25;;;;;;;;;;;4.50;88.60;;;;;;5098294;28;19912;-41
2022/03/06 12:39:50;;;;;;;;;;;4.40;89.30;;;;;;5099740;28;19908;-41
2022/03/06 12:42:24;;;;;;;;;;;4.30;88.40;;;;;;5092777;28;19916;-41
2022/03/06 12:44:55;;;;;;;;;;;4.60;90.20;;;;;;5073002;28;19966;-42
2022/03/06 12:47:21;;;;;;;;;;;4.70;88.50;;;;;;5085492;28;19908;-40
2022/03/06 12:49:50;;;;;;;;;;;4.50;89.40;;;;;;5113220;28;19999;-42
2022/03/06 12:52:23;;;;;;;;;;;4.40;88.90;;;;;;5113274;28;20003;-41
2022/03/06 12:54:49;;;;;;;;;;;4.40;90.10;;;;;;5113087;28;19912;-41
2022/03/06 12:57:15;;;;;;;;;;;5.00;92.70;;;;;;5113068;28;19908;-41
2022/03/06 12:59:41;;;;;;;;;;;5.60;89.30;;;;;;5113282;28;19915;-41
2022/03/06 13:02:08;;;;;;;;;;;5.80;85.60;;;;;;5113050;28;19911;-43
2022/03/06 13:04:36;;;;;;;;;;;5.70;89.70;;;;;;5116639;28;19912;-42
2022/03/06 13:07:03;;;;;;;;;;;4.90;90.50;;;;;;5116803;28;19914;-42
2022/03/06 13:09:34;;;;;;;;;;;4.90;90.60;;;;;;5117059;28;19912;-41
2022/03/06 13:11:59;;;;;;;;;;;4.60;90.70;;;;;;5116624;28;19998;-41
2022/03/06 13:14:45;;;;;;;;;;;4.40;90.50;;;;;;5116764;28;19962;-42
2022/03/06 13:17:11;;;;;;;;;;;4.40;91.00;;;;;;5104327;28;20045;-43
2022/03/06 13:19:41;;;;;;;;;;;4.80;90.30;;;;;;5098287;28;19999;-42
2022/03/06 13:22:11;;;;;;;;;;;5.30;91.90;;;;;;5094757;28;19912;-42
2022/03/06 13:24:38;;;;;;;;;;;5.20;87.80;;;;;;5096102;28;19912;-41
2022/03/06 13:27:03;;;;;;;;;;;5.10;90.10;;;;;;5086417;28;19940;-42
2022/03/06 13:29:29;;;;;;;;;;;5.00;89.90;;;;;;5075933;28;19975;-43
2022/03/06 13:31:54;;;;;;;;;;;4.90;90.90;;;;;;5076954;28;20450;-41
2022/03/06 13:34:21;;;;;;;;;;;4.90;90.40;;;;;;5092322;28;19908;-42
2022/03/06 13:36:47;;;;;;;;;;;5.10;90.50;;;;;;5083274;28;20010;-43
2022/03/06 13:39:14;;;;;;;;;;;4.90;87.80;;;;;;5087400;28;19997;-42
2022/03/06 13:41:48;;;;;;;;;;;5.20;90.50;;;;;;5094831;28;19916;-42
2022/03/06 13:44:14;;;;;;;;;;;5.50;89.70;;;;;;5092635;28;19912;-42
2022/03/06 13:46:39;;;;;;;;;;;5.00;87.90;;;;;;5079539;28;20346;-41
2022/03/06 13:49:16;;;;;;;;;;;5.40;87.80;;;;;;5119335;27;19913;-42
2022/03/06 13:51:42;;;;;;;;;;;5.50;89.20;;;;;;5088960;28;20218;-41
2022/03/06 13:54:08;;;;;;;;;;;5.40;91.80;;;;;;5093493;28;19908;-41
2022/03/06 13:56:38;;;;;;;;;;;5.60;88.20;;;;;;5087385;28;20007;-41
2022/03/06 13:59:05;;;;;;;;;;;5.70;88.40;;;;;;5088847;28;20363;-42
2022/03/06 14:01:31;;;;;;;;;;;4.90;88.70;;;;;;5083706;28;19916;-42
2022/03/06 14:03:57;;;;;;;;;;;5.20;89.60;;;;;;5083049;28;19978;-42
2022/03/06 14:06:31;;;;;;;;;;;5.00;89.10;;;;;;5085858;28;19940;-42
2022/03/06 14:08:57;;;;;;;;;;;5.10;88.90;;;;;;5082852;28;20354;-42
2022/03/06 14:11:26;;;;;;;;;;;5.10;89.60;;;;;;5085085;28;19908;-42
2022/03/06 14:13:53;;;;;;;;;;;4.60;89.80;;;;;;5082697;28;19920;-41
2022/03/06 14:16:19;;;;;;;;;;;4.50;89.80;;;;;;5100185;28;20008;-42
2022/03/06 14:18:56;;;;;;;;;;;4.10;90.30;;;;;;5115581;28;20007;-42
2022/03/06 14:21:23;;;;;;;;;;;4.10;91.10;;;;;;5085310;28;20081;-43